Time;durP1;ratioP1;P1;durP2;ratioP2;P2;SDS_P1;SDS_P2;PMS_P1;PMS_P2;Temp;Humidity;BMP_temperature;BMP_pressure;BME280_temperature;BME280_humidity;BME280_pressure;Samples;Min_cycle;Max_cycle;Signal;HPM_P1;HPM_P2
2022/01/16 00:00:05;;;;;;;81.47;25.13;;;1.20;99.90;;;;;;4966869;28;20482;-87
2022/01/16 00:05:14;;;;;;;82.90;24.85;;;1.10;99.90;;;;;;4955793;28;20272;-88
2022/01/16 00:07:40;;;;;;;69.03;22.37;;;;;;;;;;4954850;28;21300;-85
2022/01/16 00:10:06;;;;;;;99.20;24.50;;;1.10;99.90;;;;;;4969394;28;20527;-84
2022/01/16 00:12:32;;;;;;;77.13;25.52;;;1.20;99.90;;;;;;4962655;28;21325;-85
2022/01/16 00:14:58;;;;;;;154.67;29.17;;;;;;;;;;4958946;28;20204;-86
2022/01/16 00:17:27;;;;;;;95.53;24.07;;;;;;;;;;4965452;28;20291;-85
2022/01/16 00:19:53;;;;;;;61.72;22.95;;;1.30;99.90;;;;;;4964517;28;20477;-86
2022/01/16 00:22:22;;;;;;;134.20;25.93;;;1.30;99.90;;;;;;4962545;28;20176;-85
2022/01/16 00:24:48;;;;;;;91.45;26.55;;;1.30;99.90;;;;;;4969584;28;20206;-85
2022/01/16 00:27:14;;;;;;;91.87;23.77;;;;;;;;;;4964191;28;20180;-85
2022/01/16 00:29:40;;;;;;;103.20;27.70;;;1.30;99.90;;;;;;4968405;28;20697;-86
2022/01/16 00:32:06;;;;;;;103.83;24.50;;;1.30;99.90;;;;;;4965900;28;21028;-84
2022/01/16 00:34:31;;;;;;;93.53;22.60;;;1.20;99.90;;;;;;4965316;28;20216;-83
2022/01/16 00:36:57;;;;;;;152.23;28.40;;;1.10;99.90;;;;;;4967085;28;21054;-85
2022/01/16 00:39:22;;;;;;;91.07;25.50;;;0.90;99.90;;;;;;4962778;28;20207;-85
2022/01/16 00:41:48;;;;;;;163.70;28.80;;;0.90;99.90;;;;;;4966949;28;20182;-86
2022/01/16 00:44:13;;;;;;;178.87;29.80;;;0.90;99.90;;;;;;4964004;28;20634;-86
2022/01/16 00:46:39;;;;;;;138.20;28.23;;;1.00;99.90;;;;;;4968071;28;20190;-86
2022/01/16 00:49:05;;;;;;;81.00;25.30;;;;;;;;;;4964312;28;20190;-87
2022/01/16 00:51:31;;;;;;;88.97;25.70;;;;;;;;;;4961615;28;20241;-86
2022/01/16 00:53:56;;;;;;;70.87;25.37;;;0.70;99.90;;;;;;4962810;28;20471;-86
2022/01/16 00:56:22;;;;;;;74.17;25.90;;;0.70;99.90;;;;;;4964264;28;20447;-86
2022/01/16 00:58:48;;;;;;;71.93;25.63;;;0.90;99.90;;;;;;4961790;28;20374;-86
2022/01/16 01:01:14;;;;;;;64.87;22.13;;;;;;;;;;4969618;28;20184;-85
2022/01/16 01:03:40;;;;;;;74.78;25.17;;;0.90;99.90;;;;;;4981911;28;20482;-84
2022/01/16 01:06:06;;;;;;;74.75;25.33;;;0.80;99.90;;;;;;4962924;28;20779;-89
2022/01/16 01:08:32;;;;;;;77.13;24.90;;;0.80;99.90;;;;;;4961196;28;20184;-88
2022/01/16 01:11:00;;;;;;;68.03;24.77;;;0.70;99.90;;;;;;4947474;28;20192;-86
2022/01/16 01:16:01;;;;;;;82.55;27.65;;;0.30;99.90;;;;;;4964037;28;20561;-86
2022/01/16 01:18:27;;;;;;;81.55;25.13;;;;;;;;;;4965434;28;20309;-86
2022/01/16 01:20:54;;;;;;;72.05;25.02;;;0.30;99.90;;;;;;4940075;28;20812;-86
2022/01/16 01:23:20;;;;;;;68.60;23.58;;;0.20;99.90;;;;;;4953719;28;20183;-86
2022/01/16 01:25:46;;;;;;;69.05;25.55;;;0.20;99.90;;;;;;4971143;28;20180;-86
2022/01/16 01:28:12;;;;;;;67.57;25.50;;;0.30;99.90;;;;;;4960538;28;20584;-88
2022/01/16 01:30:39;;;;;;;77.07;25.50;;;0.40;99.90;;;;;;4959115;28;20565;-87
2022/01/16 01:33:05;;;;;;;74.53;23.35;;;;;;;;;;4972515;28;20467;-86
2022/01/16 01:35:38;;;;;;;72.63;25.42;;;0.60;99.90;;;;;;4950303;28;20925;-86
2022/01/16 01:38:04;;;;;;;64.80;23.65;;;;;;;;;;4956688;28;20208;-87
2022/01/16 01:40:30;;;;;;;84.47;25.50;;;;;;;;;;4953177;28;20760;-87
2022/01/16 01:51:16;;;;;;;61.47;23.95;;;0.60;99.90;;;;;;4958615;28;20190;-86
2022/01/16 01:53:43;;;;;;;79.35;24.80;;;0.40;99.90;;;;;;4961564;28;20210;-86
2022/01/16 01:56:12;;;;;;;63.17;23.80;;;0.40;99.90;;;;;;4953277;28;20192;-85
2022/01/16 01:58:38;;;;;;;67.53;27.00;;;0.60;99.90;;;;;;4949381;28;20285;-85
2022/01/16 02:01:05;;;;;;;74.25;27.50;;;0.60;99.90;;;;;;4956022;28;20462;-85
2022/01/16 02:06:08;;;;;;;70.30;29.23;;;0.60;99.90;;;;;;4958657;28;20663;-85
2022/01/16 02:08:36;;;;;;;60.70;26.00;;;0.60;99.90;;;;;;4956316;28;20192;-84
2022/01/16 02:11:03;;;;;;;64.50;25.75;;;0.60;99.90;;;;;;4955627;28;20705;-86
2022/01/16 02:13:33;;;;;;;74.68;26.17;;;0.70;99.90;;;;;;4961394;28;20187;-88
2022/01/16 02:34:42;;;;;;;63.57;25.80;;;0.90;99.90;;;;;;4965676;28;20216;-85
2022/01/16 02:37:11;;;;;;;69.43;26.35;;;0.90;99.90;;;;;;4962372;28;20223;-85
2022/01/16 02:39:41;;;;;;;74.63;26.23;;;0.70;99.90;;;;;;4961433;28;20215;-86
2022/01/16 02:42:09;;;;;;;74.68;26.05;;;0.70;99.90;;;;;;4957394;28;20176;-85
2022/01/16 02:44:45;;;;;;;69.03;27.80;;;0.70;99.90;;;;;;4960273;28;20200;-84
2022/01/16 02:47:13;;;;;;;66.45;27.92;;;0.60;99.90;;;;;;4962581;28;20179;-88
2022/01/16 02:49:40;;;;;;;54.25;23.90;;;0.40;99.90;;;;;;4973455;28;20198;-84
2022/01/16 02:52:12;;;;;;;59.60;24.55;;;0.40;99.90;;;;;;4960766;28;20194;-85
2022/01/16 02:54:39;;;;;;;62.47;25.35;;;0.40;99.90;;;;;;4962936;28;20282;-85
2022/01/16 02:57:08;;;;;;;72.32;25.35;;;0.30;99.90;;;;;;4956211;28;20183;-83
2022/01/16 02:59:34;;;;;;;62.92;24.95;;;0.30;99.90;;;;;;4950781;28;20245;-86
2022/01/16 03:02:01;;;;;;;74.78;27.77;;;0.30;99.90;;;;;;4965514;28;20698;-84
2022/01/16 03:04:28;;;;;;;62.13;25.83;;;0.40;99.90;;;;;;4957728;28;20227;-84
2022/01/16 03:06:54;;;;;;;66.25;26.58;;;0.40;99.90;;;;;;4964352;28;20180;-85
2022/01/16 03:09:21;;;;;;;63.90;26.33;;;0.90;99.90;;;;;;4952505;28;20196;-87
2022/01/16 03:11:49;;;;;;;61.50;25.08;;;0.70;99.90;;;;;;4952928;28;20458;-87
2022/01/16 03:14:20;;;;;;;75.28;26.85;;;0.80;99.90;;;;;;4956286;28;20200;-87
2022/01/16 03:16:50;;;;;;;59.22;24.33;;;0.80;99.90;;;;;;4960561;28;20184;-86
2022/01/16 03:22:04;;;;;;;54.70;22.90;;;0.90;99.90;;;;;;4956197;28;20210;-86
2022/01/16 03:24:40;;;;;;;55.05;22.88;;;0.90;99.90;;;;;;4958801;28;20289;-86
2022/01/16 03:27:06;;;;;;;56.30;24.25;;;1.00;99.90;;;;;;4968680;28;20185;-85
2022/01/16 03:29:32;;;;;;;59.07;24.70;;;1.00;99.90;;;;;;4963630;28;20262;-85
2022/01/16 03:31:59;;;;;;;52.20;22.80;;;1.10;99.90;;;;;;4964154;28;20456;-85
2022/01/16 03:34:25;;;;;;;55.45;22.00;;;1.10;99.90;;;;;;4952703;28;20208;-86
2022/01/16 03:36:51;;;;;;;54.13;23.70;;;1.10;99.90;;;;;;4945813;28;20208;-83
2022/01/16 03:39:17;;;;;;;69.30;27.80;;;1.20;99.90;;;;;;4963093;28;20269;-85
2022/01/16 03:41:43;;;;;;;58.47;24.60;;;1.10;99.90;;;;;;4959282;28;20431;-85
2022/01/16 03:44:08;;;;;;;55.95;22.27;;;1.10;99.90;;;;;;4961086;28;20207;-85
2022/01/16 03:46:37;;;;;;;49.50;21.67;;;1.00;99.90;;;;;;4961936;28;20224;-84
2022/01/16 03:49:12;;;;;;;53.35;21.95;;;0.90;99.90;;;;;;4948846;28;20207;-85
2022/01/16 03:51:40;;;;;;;50.10;21.55;;;0.80;99.90;;;;;;4956815;28;20187;-85
2022/01/16 03:54:08;;;;;;;61.00;24.95;;;0.60;99.90;;;;;;4991739;28;20195;-84
2022/01/16 03:56:34;;;;;;;59.33;23.92;;;;;;;;;;4960643;28;20180;-85
2022/01/16 03:58:59;;;;;;;67.80;25.52;;;0.40;99.90;;;;;;4965087;28;20203;-85
2022/01/16 04:01:25;;;;;;;49.80;23.13;;;0.40;99.90;;;;;;4958960;28;20190;-84
2022/01/16 04:03:52;;;;;;;59.60;22.03;;;0.40;99.90;;;;;;4952066;28;20261;-85
2022/01/16 04:06:19;;;;;;;58.15;23.90;;;0.30;99.90;;;;;;4949324;28;20435;-86
2022/01/16 04:08:49;;;;;;;71.00;25.50;;;0.30;99.90;;;;;;4965487;28;20184;-85
2022/01/16 04:11:15;;;;;;;55.58;23.60;;;0.50;99.90;;;;;;4966191;28;20199;-86
2022/01/16 04:13:49;;;;;;;66.23;24.00;;;0.50;99.90;;;;;;4962793;28;20188;-85
2022/01/16 04:16:15;;;;;;;53.35;22.25;;;0.50;99.90;;;;;;4962438;28;20878;-85
2022/01/16 04:18:41;;;;;;;60.20;23.58;;;0.30;99.90;;;;;;4983570;28;20211;-85
2022/01/16 04:21:07;;;;;;;61.17;23.00;;;;;;;;;;4963060;28;20354;-85
2022/01/16 04:23:33;;;;;;;55.50;22.20;;;;;;;;;;4961504;28;20239;-85
2022/01/16 04:25:58;;;;;;;57.42;24.00;;;0.40;99.90;;;;;;4965231;28;20811;-86
2022/01/16 04:28:25;;;;;;;50.63;23.80;;;0.40;99.90;;;;;;4962143;28;20180;-85
2022/01/16 04:30:52;;;;;;;52.65;22.67;;;0.30;99.90;;;;;;4960136;28;20718;-85
2022/01/16 04:33:18;;;;;;;49.85;23.15;;;0.30;99.90;;;;;;4960247;28;20276;-85
2022/01/16 04:35:44;;;;;;;52.13;21.80;;;0.40;99.90;;;;;;4981395;28;20204;-85
2022/01/16 04:38:09;;;;;;;47.67;22.80;;;0.50;99.90;;;;;;4958748;28;21728;-86
2022/01/16 04:43:47;;;;;;;50.43;22.07;;;;;;;;;;4958483;28;20607;-85
2022/01/16 04:46:11;;;;;;;58.90;23.40;;;0.30;99.90;;;;;;4962501;28;20252;-84
2022/01/16 04:48:36;;;;;;;55.93;22.57;;;0.30;99.90;;;;;;4950970;28;20187;-84
2022/01/16 04:51:02;;;;;;;68.00;25.37;;;0.30;99.90;;;;;;4958731;28;20196;-85
2022/01/16 04:53:27;;;;;;;61.80;23.20;;;0.20;99.90;;;;;;4979123;28;20184;-83
2022/01/16 04:55:53;;;;;;;45.43;21.20;;;0.30;99.90;;;;;;4961475;28;20198;-85
2022/01/16 04:58:21;;;;;;;67.20;25.23;;;;;;;;;;4957771;28;20214;-85
2022/01/16 05:00:46;;;;;;;50.85;23.63;;;0.20;99.90;;;;;;4954556;28;20188;-86
2022/01/16 05:03:12;;;;;;;60.57;24.07;;;0.20;99.90;;;;;;4957298;28;20180;-86
2022/01/16 05:05:38;;;;;;;55.97;24.93;;;0.30;99.90;;;;;;4962818;28;20835;-85
2022/01/16 05:08:04;;;;;;;63.37;22.00;;;;;;;;;;4961094;28;20188;-86
2022/01/16 05:10:29;;;;;;;57.03;24.57;;;0.20;99.90;;;;;;4953912;28;20200;-85
2022/01/16 05:13:14;;;;;;;62.90;22.53;;;;;;;;;;4954583;28;22345;-85
2022/01/16 05:18:24;;;;;;;54.50;24.38;;;;;;;;;;4976179;28;20194;-86
2022/01/16 05:20:50;;;;;;;54.47;22.52;;;0.30;99.90;;;;;;4981610;28;20219;-85
2022/01/16 05:23:15;;;;;;;64.43;24.97;;;0.30;99.90;;;;;;4962039;28;20952;-86
2022/01/16 05:25:41;;;;;;;56.57;23.57;;;;;;;;;;4961368;28;20208;-85
2022/01/16 05:28:07;;;;;;;53.97;22.40;;;0.50;99.90;;;;;;4958492;28;20220;-87
2022/01/16 05:30:32;;;;;;;60.73;24.70;;;0.60;99.90;;;;;;4964217;28;20882;-88
2022/01/16 05:32:58;;;;;;;56.60;23.97;;;0.60;99.90;;;;;;4964028;28;20184;-87
2022/01/16 05:35:23;;;;;;;62.73;23.33;;;0.60;99.90;;;;;;4964533;28;20230;-86
2022/01/16 05:37:49;;;;;;;58.13;23.07;;;;;;;;;;4956356;28;20215;-88
2022/01/16 05:40:15;;;;;;;61.53;23.60;;;0.60;99.90;;;;;;4963552;28;20215;-86
2022/01/16 05:42:41;;;;;;;46.47;19.10;;;;;;;;;;4958073;28;21379;-86
2022/01/16 05:45:07;;;;;;;64.70;25.10;;;0.30;99.90;;;;;;4956722;28;20571;-86
2022/01/16 05:47:33;;;;;;;70.63;25.92;;;0.30;99.90;;;;;;4959558;28;20496;-86
2022/01/16 05:49:58;;;;;;;65.30;26.80;;;;;;;;;;4954080;28;20192;-87
2022/01/16 05:52:24;;;;;;;60.77;23.63;;;0.20;99.90;;;;;;4958708;28;20186;-87
2022/01/16 05:54:50;;;;;;;62.70;23.00;;;0.10;99.90;;;;;;4960214;28;20455;-87
2022/01/16 05:57:15;;;;;;;56.90;25.80;;;0.10;99.90;;;;;;4953414;28;20219;-86
2022/01/16 05:59:41;;;;;;;49.27;20.70;;;;;;;;;;4964633;28;20208;-85
2022/01/16 06:02:07;;;;;;;53.30;20.73;;;0.00;99.90;;;;;;4954306;28;20192;-86
2022/01/16 06:04:32;;;;;;;54.20;21.93;;;-0.10;99.90;;;;;;4962503;28;20462;-86
2022/01/16 06:06:59;;;;;;;65.13;26.10;;;-0.10;99.90;;;;;;4961146;28;20198;-86
2022/01/16 06:09:26;;;;;;;59.10;24.38;;;-0.20;99.90;;;;;;4956727;28;20198;-87
2022/01/16 06:11:53;;;;;;;59.60;21.80;;;-0.20;99.90;;;;;;4952896;28;20275;-86
2022/01/16 06:14:19;;;;;;;55.28;22.75;;;;;;;;;;4953873;28;20591;-86
2022/01/16 06:16:45;;;;;;;64.93;20.90;;;;;;;;;;4954448;28;20198;-86
2022/01/16 06:19:11;;;;;;;47.63;19.50;;;;;;;;;;4958434;28;20502;-86
2022/01/16 06:21:36;;;;;;;61.72;22.50;;;-0.60;99.90;;;;;;4959968;28;20466;-85
2022/01/16 06:24:03;;;;;;;55.60;21.63;;;;;;;;;;4954472;28;20199;-86
2022/01/16 06:26:30;;;;;;;64.03;23.20;;;-0.60;99.90;;;;;;4950844;28;20180;-85
2022/01/16 06:28:55;;;;;;;54.30;22.80;;;-0.50;99.90;;;;;;4962964;28;21707;-85
2022/01/16 06:31:21;;;;;;;56.57;21.97;;;-0.50;99.90;;;;;;4966994;28;20180;-86
2022/01/16 06:33:47;;;;;;;52.40;21.43;;;-0.50;99.90;;;;;;4962481;28;20370;-86
2022/01/16 06:36:12;;;;;;;46.07;19.63;;;-0.40;99.90;;;;;;4950745;28;20245;-86
2022/01/16 06:38:38;;;;;;;68.67;22.37;;;-0.40;99.90;;;;;;4960718;28;20211;-86
2022/01/16 06:41:03;;;;;;;56.03;22.97;;;-0.40;99.90;;;;;;4963305;28;20180;-85
2022/01/16 06:43:29;;;;;;;54.10;22.63;;;;;;;;;;4955393;28;20265;-85
2022/01/16 06:45:56;;;;;;;51.57;21.07;;;-0.40;99.90;;;;;;4980613;28;20660;-86
2022/01/16 06:48:22;;;;;;;55.65;23.48;;;;;;;;;;4968408;28;21018;-86
2022/01/16 06:50:48;;;;;;;59.43;23.63;;;-0.20;99.90;;;;;;4955138;28;20182;-86
2022/01/16 06:53:13;;;;;;;44.57;20.60;;;-0.40;99.90;;;;;;4946524;28;21463;-86
2022/01/16 06:55:39;;;;;;;52.97;22.97;;;;;;;;;;4957694;28;20315;-87
2022/01/16 06:58:05;;;;;;;51.80;21.73;;;-0.60;99.90;;;;;;4953528;28;20652;-85
2022/01/16 07:00:31;;;;;;;47.73;19.77;;;;;;;;;;4959520;28;21437;-86
2022/01/16 07:02:56;;;;;;;52.50;23.08;;;-0.50;99.90;;;;;;4957871;28;20283;-86
2022/01/16 07:05:22;;;;;;;48.40;19.67;;;;;;;;;;4962680;28;20206;-86
2022/01/16 07:07:48;;;;;;;49.23;20.80;;;-0.50;99.90;;;;;;4958961;28;20215;-87
2022/01/16 07:10:14;;;;;;;51.33;21.67;;;;;;;;;;4956137;28;20462;-86
2022/01/16 07:12:39;;;;;;;41.17;19.05;;;-0.40;99.90;;;;;;4956654;28;20968;-85
2022/01/16 07:15:05;;;;;;;53.00;20.73;;;-0.40;99.90;;;;;;4961533;28;20225;-87
2022/01/16 07:17:31;;;;;;;56.67;23.17;;;-0.40;99.90;;;;;;4958397;28;20184;-86
2022/01/16 07:19:56;;;;;;;58.33;21.37;;;-0.40;99.90;;;;;;4954876;28;20221;-86
2022/01/16 07:22:23;;;;;;;63.63;29.40;;;-0.20;99.90;;;;;;4959979;28;20189;-85
2022/01/16 07:24:50;;;;;;;49.88;21.95;;;0.00;99.90;;;;;;4956834;28;20200;-85
2022/01/16 07:27:16;;;;;;;52.28;21.40;;;0.10;99.90;;;;;;4959633;28;20183;-86
2022/01/16 07:29:41;;;;;;;49.53;19.38;;;0.20;99.90;;;;;;4959741;28;20191;-84
2022/01/16 07:32:07;;;;;;;44.87;20.60;;;0.20;99.90;;;;;;4961707;28;20184;-87
2022/01/16 07:34:34;;;;;;;44.80;20.60;;;;;;;;;;4959594;28;20310;-86
2022/01/16 07:37:00;;;;;;;47.92;19.45;;;0.20;99.90;;;;;;4956548;28;20241;-86
2022/01/16 07:39:26;;;;;;;41.93;20.17;;;;;;;;;;4959450;28;20211;-86
2022/01/16 07:41:52;;;;;;;39.55;18.85;;;;;;;;;;4959861;28;20551;-86
2022/01/16 07:44:18;;;;;;;40.17;17.17;;;0.00;99.90;;;;;;4958692;28;20290;-86
2022/01/16 07:46:43;;;;;;;40.13;20.57;;;;;;;;;;4963865;28;20447;-85
2022/01/16 07:49:09;;;;;;;41.97;19.43;;;0.20;99.90;;;;;;4955024;28;20183;-86
2022/01/16 07:51:35;;;;;;;48.70;22.03;;;;;;;;;;4960023;28;20439;-85
2022/01/16 07:54:01;;;;;;;53.60;21.27;;;0.00;99.90;;;;;;4979934;28;20219;-86
2022/01/16 07:56:27;;;;;;;43.20;20.17;;;;;;;;;;4958230;28;20193;-86
2022/01/16 07:58:53;;;;;;;43.93;20.63;;;;;;;;;;4973250;28;20216;-85
2022/01/16 08:01:19;;;;;;;41.15;18.65;;;-0.10;99.90;;;;;;4965798;28;20821;-87
2022/01/16 08:03:45;;;;;;;52.60;22.67;;;-0.20;99.90;;;;;;4962762;28;20203;-87
2022/01/16 08:06:12;;;;;;;49.17;20.10;;;;;;;;;;4966175;28;20299;-87
2022/01/16 08:08:38;;;;;;;43.05;19.50;;;;;;;;;;4958729;28;20214;-87
2022/01/16 08:11:04;;;;;;;37.97;17.93;;;;;;;;;;4959268;28;20257;-88
2022/01/16 08:13:30;;;;;;;42.78;20.17;;;-0.30;99.90;;;;;;4958545;28;20526;-87
2022/01/16 08:15:56;;;;;;;47.90;22.30;;;;;;;;;;4965653;28;20184;-87
2022/01/16 08:18:21;;;;;;;57.17;23.90;;;-0.30;99.90;;;;;;4972123;28;20199;-88
2022/01/16 08:20:47;;;;;;;34.40;17.77;;;-0.30;99.90;;;;;;4950836;28;20448;-86
2022/01/16 08:23:13;;;;;;;48.70;18.57;;;;;;;;;;4960993;28;20184;-85
2022/01/16 08:25:39;;;;;;;57.30;22.70;;;-0.30;99.90;;;;;;4955819;28;20579;-85
2022/01/16 08:28:05;;;;;;;57.40;23.75;;;-0.30;99.90;;;;;;4951486;28;20443;-86
2022/01/16 08:30:31;;;;;;;52.10;23.40;;;-0.20;99.90;;;;;;4955087;28;20222;-87
2022/01/16 08:32:56;;;;;;;39.87;18.07;;;;;;;;;;4953453;28;20200;-84
2022/01/16 08:35:22;;;;;;;48.57;19.80;;;;;;;;;;4952091;28;20219;-86
2022/01/16 08:37:48;;;;;;;61.03;23.57;;;;;;;;;;4945428;28;20453;-84
2022/01/16 08:40:14;;;;;;;64.97;26.05;;;-0.20;99.90;;;;;;4947489;28;20467;-86
2022/01/16 08:42:41;;;;;;;60.10;23.40;;;-0.30;99.90;;;;;;4952304;28;20184;-86
2022/01/16 08:45:08;;;;;;;55.70;18.83;;;-0.20;99.90;;;;;;4947560;28;20749;-86
2022/01/16 08:47:33;;;;;;;52.85;19.90;;;-0.30;99.90;;;;;;4942266;28;20184;-83
2022/01/16 08:49:59;;;;;;;42.83;20.20;;;-0.30;99.90;;;;;;4946714;28;20188;-84
2022/01/16 08:52:28;;;;;;;49.57;19.90;;;-0.30;99.90;;;;;;4955379;28;20184;-83
2022/01/16 08:54:54;;;;;;;34.20;16.30;;;;;;;;;;4950229;28;20211;-84
2022/01/16 08:57:19;;;;;;;49.10;19.67;;;-0.20;99.90;;;;;;4952778;28;20229;-83
2022/01/16 08:59:45;;;;;;;45.10;18.30;;;-0.20;99.90;;;;;;4957013;28;20525;-84
2022/01/16 09:02:11;;;;;;;42.67;18.27;;;-0.20;99.90;;;;;;4954253;28;21021;-84
2022/01/16 09:04:37;;;;;;;61.57;24.93;;;;;;;;;;4950286;28;20291;-87
2022/01/16 09:07:03;;;;;;;53.03;23.52;;;-0.10;99.90;;;;;;4947062;28;20196;-84
2022/01/16 09:09:30;;;;;;;42.80;17.47;;;-0.10;99.90;;;;;;4958324;28;20309;-88
2022/01/16 09:11:56;;;;;;;37.28;15.85;;;-0.10;99.90;;;;;;4961639;28;20961;-86
2022/01/16 09:14:21;;;;;;;47.13;19.43;;;-0.20;99.90;;;;;;4956526;28;20782;-86
2022/01/16 09:16:47;;;;;;;44.97;18.53;;;-0.20;99.90;;;;;;4966403;28;20184;-82
2022/01/16 09:19:13;;;;;;;62.60;23.27;;;0.30;99.90;;;;;;4964334;28;20743;-87
2022/01/16 09:21:38;;;;;;;44.30;18.37;;;;;;;;;;4952989;28;20216;-85
2022/01/16 09:24:05;;;;;;;57.93;18.10;;;-0.10;99.90;;;;;;4958818;28;20208;-85
2022/01/16 09:26:30;;;;;;;31.05;14.05;;;;;;;;;;4958302;28;20435;-86
2022/01/16 09:28:56;;;;;;;40.07;16.23;;;-0.10;99.90;;;;;;4958856;28;20764;-87
2022/01/16 09:31:22;;;;;;;45.77;17.23;;;;;;;;;;4954061;28;21480;-87
2022/01/16 09:33:48;;;;;;;55.50;24.17;;;;;;;;;;4955956;28;20231;-87
2022/01/16 09:36:14;;;;;;;38.03;14.57;;;;;;;;;;4954928;28;20447;-86
2022/01/16 09:38:40;;;;;;;38.85;18.77;;;;;;;;;;4950659;28;20447;-86
2022/01/16 09:41:06;;;;;;;55.38;22.77;;;0.20;99.90;;;;;;4959478;28;20184;-85
2022/01/16 09:43:34;;;;;;;52.30;18.07;;;0.30;99.90;;;;;;4957210;28;20527;-87
2022/01/16 09:46:00;;;;;;;47.33;20.17;;;0.20;99.90;;;;;;4973434;28;20432;-87
2022/01/16 09:48:27;;;;;;;42.13;17.38;;;0.20;99.90;;;;;;4964641;28;20219;-85
2022/01/16 09:50:52;;;;;;;61.88;21.85;;;0.20;99.90;;;;;;4974478;28;20241;-86
2022/01/16 09:53:18;;;;;;;57.97;24.57;;;;;;;;;;4951125;28;20213;-86
2022/01/16 09:55:44;;;;;;;46.43;19.43;;;0.30;99.90;;;;;;4955748;28;20620;-86
2022/01/16 09:58:10;;;;;;;38.57;17.53;;;;;;;;;;4968306;28;21631;-88
2022/01/16 10:00:35;;;;;;;47.43;18.00;;;0.30;99.90;;;;;;4952578;28;21227;-88
2022/01/16 10:03:02;;;;;;;52.20;18.33;;;2.00;99.90;;;;;;4948441;28;20979;-87
2022/01/16 10:05:37;;;;;;;45.08;19.02;;;0.40;99.90;;;;;;4948872;28;20894;-89
2022/01/16 10:08:08;;;;;;;56.30;21.35;;;0.30;99.90;;;;;;4946331;28;20662;-84
2022/01/16 10:10:37;;;;;;;61.10;22.38;;;0.50;99.90;;;;;;4949362;28;20200;-83
2022/01/16 10:13:24;;;;;;;47.92;22.38;;;0.50;99.90;;;;;;4951972;28;20274;-87
2022/01/16 10:15:57;;;;;;;53.58;22.63;;;0.60;99.90;;;;;;4955598;28;20208;-86
2022/01/16 10:18:39;;;;;;;64.78;21.80;;;2.40;99.90;;;;;;4957047;28;20192;-86
2022/01/16 10:21:09;;;;;;;44.10;17.70;;;0.60;99.90;;;;;;4946035;28;20187;-86
2022/01/16 10:23:40;;;;;;;48.50;18.73;;;0.60;99.90;;;;;;4962880;28;20187;-87
2022/01/16 10:26:16;;;;;;;50.72;17.80;;;0.60;99.90;;;;;;4957765;28;20200;-87
2022/01/16 10:28:42;;;;;;;34.15;16.50;;;0.60;99.90;;;;;;4950106;28;20184;-87
2022/01/16 10:31:22;;;;;;;41.33;16.30;;;0.60;99.90;;;;;;4955774;28;20184;-85
2022/01/16 10:33:48;;;;;;;54.03;22.92;;;;;;;;;;4947155;28;20195;-86
2022/01/16 10:36:31;;;;;;;69.97;26.63;;;0.60;99.90;;;;;;4949933;28;20187;-88
2022/01/16 10:39:11;;;;;;;47.53;21.48;;;0.60;99.90;;;;;;4951656;28;20207;-87
2022/01/16 10:41:38;;;;;;;42.00;18.65;;;0.60;99.90;;;;;;4972401;28;20176;-85
2022/01/16 10:44:04;;;;;;;52.80;20.05;;;0.50;99.90;;;;;;4957590;28;21069;-86
2022/01/16 10:46:30;;;;;;;41.08;18.95;;;;;;;;;;4956054;28;20175;-84
2022/01/16 10:49:13;;;;;;;67.15;24.85;;;0.50;99.90;;;;;;4962364;28;20192;-86
2022/01/16 10:51:38;;;;;;;49.75;25.83;;;0.50;99.90;;;;;;4941867;28;20219;-86
2022/01/16 10:54:34;;;;;;;55.87;24.23;;;0.50;99.90;;;;;;4946897;28;20203;-88
2022/01/16 10:57:27;;;;;;;41.75;18.27;;;0.50;99.90;;;;;;4961782;28;20195;-87
2022/01/16 11:00:09;;;;;;;61.95;23.50;;;0.50;99.90;;;;;;4961145;28;21138;-88
2022/01/16 11:02:35;;;;;;;51.38;24.75;;;0.60;99.90;;;;;;4952694;28;20706;-87
2022/01/16 11:05:16;;;;;;;50.63;21.65;;;0.60;99.90;;;;;;4956591;28;20200;-86
2022/01/16 11:07:43;;;;;;;43.78;17.30;;;0.70;99.90;;;;;;4963647;28;20562;-87
2022/01/16 11:10:20;;;;;;;49.40;20.17;;;0.60;99.90;;;;;;4962725;28;20637;-85
2022/01/16 11:12:48;;;;;;;57.10;21.33;;;0.60;99.90;;;;;;4955315;28;20187;-86
2022/01/16 11:15:14;;;;;;;51.58;22.80;;;;;;;;;;4961737;28;20208;-87
2022/01/16 11:17:40;;;;;;;45.78;20.08;;;0.50;99.90;;;;;;4957683;28;20192;-87
2022/01/16 11:20:07;;;;;;;57.83;22.33;;;0.60;99.90;;;;;;4956402;28;20242;-88
2022/01/16 11:22:45;;;;;;;52.65;20.10;;;0.60;99.90;;;;;;4960174;28;20211;-92
2022/01/16 11:25:23;;;;;;;42.08;18.38;;;0.50;99.90;;;;;;4953575;28;20202;-85
2022/01/16 11:27:50;;;;;;;49.03;20.42;;;0.70;99.90;;;;;;4954175;28;20667;-85
2022/01/16 11:30:16;;;;;;;40.40;19.17;;;;;;;;;;4959110;28;20187;-85
2022/01/16 11:32:42;;;;;;;48.97;20.17;;;;;;;;;;4960430;28;20188;-86
2022/01/16 11:35:08;;;;;;;47.90;20.13;;;0.50;99.90;;;;;;4948090;28;20469;-85
2022/01/16 11:37:36;;;;;;;56.38;22.20;;;0.50;99.90;;;;;;4954917;28;20447;-88
2022/01/16 11:40:41;;;;;;;57.10;22.75;;;0.70;99.90;;;;;;4958823;28;20272;-86
2022/01/16 11:43:22;;;;;;;50.63;21.85;;;0.80;99.90;;;;;;4960084;28;20168;-86
2022/01/16 11:45:56;;;;;;;60.60;23.30;;;0.90;99.90;;;;;;4951990;28;20710;-86
2022/01/16 11:48:40;;;;;;;50.58;21.55;;;1.00;99.90;;;;;;4957350;28;20184;-86
2022/01/16 11:51:35;;;;;;;57.45;23.58;;;1.00;99.90;;;;;;4955260;28;20184;-87
2022/01/16 11:54:13;;;;;;;52.22;21.50;;;1.10;99.90;;;;;;4967059;28;20806;-86
2022/01/16 11:56:41;;;;;;;36.67;14.98;;;1.20;99.90;;;;;;4953922;28;20223;-87
2022/01/16 11:59:20;;;;;;;50.95;19.60;;;1.40;99.90;;;;;;4960465;28;20260;-84
2022/01/16 12:02:00;;;;;;;59.08;22.58;;;1.30;99.90;;;;;;4957313;28;20192;-87
2022/01/16 12:04:29;;;;;;;50.50;20.48;;;1.40;99.90;;;;;;4963512;28;20196;-87
2022/01/16 12:07:17;;;;;;;63.13;26.38;;;1.40;99.90;;;;;;4959261;28;20199;-83
2022/01/16 12:12:14;;;;;;;50.07;21.40;;;1.50;99.90;;;;;;4957992;28;20521;-85
2022/01/16 12:14:47;;;;;;;52.80;21.77;;;1.50;99.90;;;;;;4962431;28;20505;-86
2022/01/16 12:17:26;;;;;;;51.30;22.20;;;1.40;99.90;;;;;;4962951;28;20210;-86
2022/01/16 12:19:52;;;;;;;60.17;22.00;;;1.50;99.90;;;;;;4961603;28;20290;-87
2022/01/16 12:22:42;;;;;;;54.58;21.85;;;1.50;99.90;;;;;;4962727;28;20184;-87
2022/01/16 12:25:15;;;;;;;51.03;21.25;;;1.50;99.90;;;;;;4958160;28;20212;-85
2022/01/16 12:28:01;;;;;;;50.13;23.35;;;1.60;99.90;;;;;;4986257;28;20829;-87
2022/01/16 12:30:37;;;;;;;51.25;24.00;;;1.50;99.90;;;;;;4955251;28;20201;-85
2022/01/16 12:33:11;;;;;;;45.80;19.25;;;1.50;99.90;;;;;;4965267;28;20191;-87
2022/01/16 12:35:49;;;;;;;48.10;19.73;;;1.60;99.90;;;;;;4958400;28;20298;-88
2022/01/16 12:38:33;;;;;;;41.72;20.15;;;1.70;99.90;;;;;;4948953;28;20187;-87
2022/01/16 12:41:07;;;;;;;51.85;21.58;;;1.60;99.90;;;;;;4964770;28;20668;-87
2022/01/16 12:43:43;;;;;;;40.50;16.75;;;1.60;99.90;;;;;;4963278;28;20206;-84
2022/01/16 12:46:12;;;;;;;41.63;17.80;;;1.60;99.90;;;;;;4966106;28;20184;-87
2022/01/16 12:48:44;;;;;;;44.55;18.23;;;1.70;99.90;;;;;;4965696;28;20188;-85
2022/01/16 12:51:10;;;;;;;37.85;17.15;;;1.70;99.90;;;;;;4966888;28;20176;-86
2022/01/16 12:53:45;;;;;;;45.55;21.35;;;1.70;99.90;;;;;;4960662;28;20199;-87
2022/01/16 12:56:34;;;;;;;43.42;19.67;;;1.70;99.90;;;;;;4958328;28;20258;-84
2022/01/16 12:59:09;;;;;;;36.53;17.05;;;1.90;99.90;;;;;;4956734;28;20207;-86
2022/01/16 13:01:35;;;;;;;37.33;18.10;;;1.90;99.90;;;;;;4964666;28;20179;-85
2022/01/16 13:04:01;;;;;;;48.70;19.55;;;2.00;99.90;;;;;;4963529;28;20219;-85
2022/01/16 13:06:32;;;;;;;44.83;19.60;;;2.10;99.90;;;;;;4968405;28;20216;-86
2022/01/16 13:09:00;;;;;;;34.00;16.35;;;2.00;99.90;;;;;;4961093;28;20191;-84
2022/01/16 13:11:33;;;;;;;42.83;18.73;;;2.00;99.90;;;;;;4962816;28;20227;-85
2022/01/16 13:14:04;;;;;;;39.28;18.10;;;;;;;;;;4958749;28;20746;-86
2022/01/16 13:16:35;;;;;;;33.53;15.63;;;2.00;99.90;;;;;;4953941;28;20190;-87
2022/01/16 13:19:08;;;;;;;35.53;18.10;;;-0.60;99.90;;;;;;4965459;28;20207;-88
2022/01/16 13:21:59;;;;;;;36.00;16.52;;;1.90;99.90;;;;;;4961914;28;20186;-87
2022/01/16 13:24:32;;;;;;;38.85;19.73;;;1.90;99.90;;;;;;4958975;28;20207;-88
2022/01/16 13:26:59;;;;;;;42.78;17.58;;;1.90;99.90;;;;;;4953867;28;20778;-87
2022/01/16 13:29:25;;;;;;;39.03;17.52;;;2.00;99.90;;;;;;4962125;28;20211;-87
2022/01/16 13:31:51;;;;;;;45.30;18.77;;;;;;;;;;4963576;28;20245;-87
2022/01/16 13:34:32;;;;;;;45.22;21.05;;;2.10;99.90;;;;;;4956878;28;20460;-86
2022/01/16 13:36:58;;;;;;;47.83;19.15;;;2.10;99.90;;;;;;4959156;28;20210;-86
2022/01/16 13:39:41;;;;;;;48.40;23.35;;;6.30;99.90;;;;;;4955990;28;20215;-86
2022/01/16 13:42:38;;;;;;;39.03;16.42;;;2.30;99.90;;;;;;4965199;28;20624;-84
2022/01/16 13:45:25;;;;;;;31.05;16.52;;;2.10;99.90;;;;;;4963547;28;20545;-86